weather.gov     
National Weather Service

Terminal Aerodrome Forecast
NWS Homepage
This page is being discontinued on March 12, 2014.
The same data is available at this site. Please update your bookmarks.
Thank you, and we apologize for the inconvenience.
Please send an email to SR-SRH.Webmaster@noaa.gov with any concerns.


Current Version
Previous Version:    01  02  03  04  05  06  07  08  09  10  11  12  13  14  15  16  17  18  19  20  21  22  23  24  25  26  27  28  29  30  
   31  
[Printable]
791
FTUS44 KCRP 171100 AAA
TAFCRP
TAF AMD
KCRP 171127Z 1711/1812 13009KT P6SM VCSH FEW028 OVC250
      TEMPO 1712/1716 P6SM BKN025
     FM171600 12013KT P6SM VCSH BKN025 BKN040 OVC250
     FM172200 11016G22KT P6SM VCSH OVC022
     FM180300 09010KT P6SM OVC015
     FM180800 08010KT P6SM BKN012=


U.S. Dept. of Commerce
NOAA National Weather Service
1325 East West Highway
Silver Spring, MD 20910
E-mail: w-nws.webmaster@noaa.gov
Page last modified: May 16, 2007
NATIONAL WEATHER SERVICE: for Safety, for Work, for Fun - FOR LIFE